createdAt,value
2018-12-03T00:01:06.910Z,10.90
2018-12-03T00:03:36.202Z,10.90
2018-12-03T00:06:04.864Z,10.90
2018-12-03T00:08:33.561Z,10.90
2018-12-03T00:11:01.782Z,10.80
2018-12-03T00:13:30.260Z,10.80
2018-12-03T00:15:58.911Z,10.80
2018-12-03T00:18:27.417Z,10.80
2018-12-03T00:20:55.673Z,10.80
2018-12-03T00:23:24.869Z,10.80
2018-12-03T00:25:53.434Z,10.90
2018-12-03T00:28:21.773Z,10.90
2018-12-03T00:30:50.896Z,10.90
2018-12-03T00:33:20.134Z,10.90
2018-12-03T00:35:49.129Z,10.90
2018-12-03T00:38:18.740Z,10.90
2018-12-03T00:40:47.849Z,10.90
2018-12-03T00:43:17.249Z,10.90
2018-12-03T00:45:45.963Z,10.90
2018-12-03T00:48:14.799Z,10.90
2018-12-03T00:50:43.620Z,10.90
2018-12-03T00:53:12.548Z,11.00
2018-12-03T00:55:41.508Z,11.00
2018-12-03T00:58:10.274Z,10.90
2018-12-03T01:00:39.719Z,11.00
2018-12-03T01:03:08.096Z,11.00
2018-12-03T01:05:36.525Z,11.00
2018-12-03T01:08:06.682Z,11.00
2018-12-03T01:10:35.049Z,11.00
2018-12-03T01:13:03.310Z,11.00
2018-12-03T01:15:31.613Z,11.10
2018-12-03T01:18:01.391Z,11.10
2018-12-03T01:20:30.638Z,11.10
2018-12-03T01:22:58.898Z,11.10
2018-12-03T01:25:27.157Z,11.10
2018-12-03T01:27:56.541Z,11.10
2018-12-03T01:30:25.249Z,11.10
2018-12-03T01:32:53.875Z,11.10
2018-12-03T01:35:22.122Z,11.20
2018-12-03T01:37:50.744Z,11.20
2018-12-03T01:40:19.257Z,11.20
2018-12-03T01:42:47.515Z,11.20
2018-12-03T01:45:15.964Z,11.20
2018-12-03T01:47:44.416Z,11.20
2018-12-03T01:50:13.513Z,11.20
2018-12-03T01:52:42.607Z,11.20
2018-12-03T01:55:12.287Z,11.20
2018-12-03T01:57:40.802Z,11.20
2018-12-03T02:00:15.793Z,11.20
2018-12-03T02:02:44.413Z,11.20
2018-12-03T02:05:13.486Z,11.30
2018-12-03T02:07:42.785Z,11.20
2018-12-03T02:10:12.621Z,11.20
2018-12-03T02:12:41.653Z,11.20
2018-12-03T02:15:16.919Z,11.20
2018-12-03T02:17:45.628Z,11.20
2018-12-03T02:20:15.308Z,11.20
2018-12-03T02:22:45.699Z,11.20
2018-12-03T02:25:14.359Z,11.20
2018-12-03T02:27:42.629Z,11.20
2018-12-03T02:30:13.617Z,11.20
2018-12-03T02:32:42.767Z,11.30
2018-12-03T02:35:12.114Z,11.30
2018-12-03T02:37:40.529Z,11.30
2018-12-03T02:40:15.279Z,11.30
2018-12-03T02:42:43.667Z,11.30
2018-12-03T02:45:12.854Z,11.30
2018-12-03T02:47:41.534Z,11.20
2018-12-03T02:50:17.112Z,11.20
2018-12-03T02:52:45.830Z,11.20
2018-12-03T02:55:14.766Z,11.10
2018-12-03T02:57:43.946Z,11.10
2018-12-03T03:00:13.610Z,11.20
2018-12-03T03:02:42.855Z,11.10
2018-12-03T03:05:13.466Z,11.10
2018-12-03T03:07:41.958Z,11.10
2018-12-03T03:10:14.576Z,11.20
2018-12-03T03:12:42.959Z,11.20
2018-12-03T03:15:12.286Z,11.20
2018-12-03T03:17:40.996Z,11.20
2018-12-03T03:20:10.613Z,11.20
2018-12-03T03:22:40.355Z,11.30
2018-12-03T03:25:09.610Z,11.30
2018-12-03T03:27:38.462Z,11.30
2018-12-03T03:30:12.571Z,11.30
2018-12-03T03:32:42.133Z,11.30
2018-12-03T03:35:13.068Z,11.30
2018-12-03T03:37:41.835Z,11.30
2018-12-03T03:40:11.645Z,11.30
2018-12-03T03:42:40.241Z,11.30
2018-12-03T03:45:11.337Z,11.30
2018-12-03T03:47:40.841Z,11.30
2018-12-03T03:50:10.119Z,11.20
2018-12-03T03:52:38.927Z,11.20
2018-12-03T03:55:08.143Z,11.10
2018-12-03T03:57:36.453Z,11.10
2018-12-03T04:00:07.860Z,11.10
2018-12-03T04:02:36.171Z,11.10
2018-12-03T04:05:04.730Z,11.10
2018-12-03T04:07:33.174Z,11.20
2018-12-03T04:12:46.264Z,11.10
2018-12-03T04:15:15.314Z,11.30
2018-12-03T04:17:43.505Z,11.30
2018-12-03T04:20:13.221Z,11.40
2018-12-03T04:22:42.125Z,11.40
2018-12-03T04:25:11.192Z,11.50
2018-12-03T04:27:40.428Z,11.50
2018-12-03T04:30:16.708Z,11.50
2018-12-03T04:32:46.080Z,11.50
2018-12-03T04:35:15.824Z,11.50
2018-12-03T04:37:44.717Z,11.60
2018-12-03T04:40:16.195Z,11.60
2018-12-03T04:42:44.624Z,11.60
2018-12-03T04:45:14.558Z,11.60
2018-12-03T04:47:42.962Z,11.60
2018-12-03T04:50:15.088Z,11.70
2018-12-03T04:52:44.676Z,11.70
2018-12-03T04:55:14.635Z,11.70
2018-12-03T04:57:43.125Z,11.70
2018-12-03T05:00:14.899Z,11.60
2018-12-03T05:02:45.643Z,11.60
2018-12-03T05:05:14.849Z,11.50
2018-12-03T05:07:43.591Z,11.50
2018-12-03T05:10:13.992Z,11.50
2018-12-03T05:12:44.160Z,11.40
2018-12-03T05:15:12.989Z,11.50
2018-12-03T05:17:42.065Z,11.50
2018-12-03T05:20:26.410Z,11.50
2018-12-03T05:22:54.633Z,11.40
2018-12-03T05:25:22.869Z,11.30
2018-12-03T05:27:51.606Z,11.20
2018-12-03T05:30:20.172Z,11.10
2018-12-03T05:32:48.378Z,11.10
2018-12-03T05:35:21.186Z,11.00
2018-12-03T05:37:49.888Z,11.00
2018-12-03T05:40:20.869Z,10.90
2018-12-03T05:42:49.750Z,11.00
2018-12-03T05:45:17.975Z,11.00
2018-12-03T05:47:46.269Z,11.10
2018-12-03T05:50:15.449Z,11.20
2018-12-03T05:52:44.964Z,11.20
2018-12-03T05:55:13.477Z,11.20
2018-12-03T05:57:42.178Z,11.20
2018-12-03T06:00:21.114Z,11.20
2018-12-03T06:02:49.538Z,11.20
2018-12-03T06:05:18.217Z,11.20
2018-12-03T06:07:46.718Z,11.20
2018-12-03T06:10:16.179Z,11.30
2018-12-03T06:12:44.701Z,11.30
2018-12-03T06:15:14.130Z,11.30
2018-12-03T06:17:42.840Z,11.30
2018-12-03T06:20:16.413Z,11.30
2018-12-03T06:22:45.115Z,11.30
2018-12-03T06:25:16.128Z,11.30
2018-12-03T06:27:44.698Z,11.30
2018-12-03T06:30:15.266Z,11.30
2018-12-03T06:32:43.602Z,11.30
2018-12-03T06:35:13.299Z,11.30
2018-12-03T06:37:42.863Z,11.40
2018-12-03T06:40:14.548Z,11.40
2018-12-03T06:42:43.200Z,11.40
2018-12-03T06:45:13.576Z,11.40
2018-12-03T06:48:01.485Z,11.40
2018-12-03T06:50:30.638Z,11.40
2018-12-03T06:52:59.591Z,11.40
2018-12-03T06:55:27.827Z,11.40
2018-12-03T06:57:56.073Z,11.30
2018-12-03T07:00:24.989Z,11.30
2018-12-03T07:02:53.449Z,11.30
2018-12-03T07:05:22.622Z,11.30
2018-12-03T07:07:54.227Z,11.20
2018-12-03T07:10:23.553Z,11.20
2018-12-03T07:12:53.242Z,11.10
2018-12-03T07:15:22.362Z,11.10
2018-12-03T07:17:52.714Z,11.10
2018-12-03T07:20:20.930Z,11.00
2018-12-03T07:22:50.027Z,11.00
2018-12-03T07:25:18.310Z,11.00
2018-12-03T07:27:46.592Z,11.00
2018-12-03T07:30:19.130Z,11.00
2018-12-03T07:32:48.342Z,11.00
2018-12-03T07:35:17.230Z,11.00
2018-12-03T07:37:45.784Z,11.10
2018-12-03T07:40:14.001Z,11.10
2018-12-03T07:42:42.880Z,11.20
2018-12-03T07:45:17.228Z,11.20
2018-12-03T07:47:47.053Z,11.20
2018-12-03T07:50:16.490Z,11.30
2018-12-03T07:52:44.829Z,11.30
2018-12-03T07:55:14.493Z,11.40
2018-12-03T07:57:44.594Z,11.60
2018-12-03T08:00:16.441Z,11.60
2018-12-03T08:02:44.909Z,11.70
2018-12-03T08:05:13.529Z,11.70
2018-12-03T08:07:41.777Z,11.60
2018-12-03T08:10:13.467Z,11.60
2018-12-03T08:12:42.028Z,11.50
2018-12-03T08:15:12.654Z,11.50
2018-12-03T08:17:41.481Z,11.50
2018-12-03T08:20:13.921Z,11.50
2018-12-03T08:22:42.687Z,11.50
2018-12-03T08:25:10.882Z,11.70
2018-12-03T08:27:39.215Z,11.80
2018-12-03T08:30:10.498Z,11.90
2018-12-03T08:32:38.838Z,11.90
2018-12-03T08:35:10.869Z,11.90
2018-12-03T08:37:39.350Z,12.00
2018-12-03T08:40:11.938Z,12.00
2018-12-03T08:42:46.160Z,11.90
2018-12-03T08:45:14.422Z,11.90
2018-12-03T08:47:43.125Z,11.90
2018-12-03T08:50:26.480Z,11.90
2018-12-03T08:52:55.794Z,12.00
2018-12-03T08:55:24.137Z,12.10
2018-12-03T08:57:52.322Z,12.20
2018-12-03T09:00:23.265Z,12.20
2018-12-03T09:03:57.041Z,12.20
2018-12-03T09:06:25.553Z,12.30
2018-12-03T09:08:54.396Z,12.40
2018-12-03T09:11:24.268Z,12.40
2018-12-03T09:13:53.301Z,12.40
2018-12-03T09:16:22.070Z,12.40
2018-12-03T09:18:51.154Z,12.40
2018-12-03T09:21:21.078Z,12.40
2018-12-03T09:23:50.405Z,12.50
2018-12-03T09:26:19.001Z,12.60
2018-12-03T09:28:47.697Z,12.70
2018-12-03T09:31:18.292Z,12.80
2018-12-03T09:33:54.410Z,12.80
2018-12-03T09:36:24.412Z,12.80
2018-12-03T09:39:01.658Z,12.90
2018-12-03T09:41:30.412Z,12.80
2018-12-03T09:44:00.084Z,12.80
2018-12-03T09:46:28.878Z,12.80
2018-12-03T09:48:58.625Z,12.90
2018-12-03T09:51:35.501Z,13.00
2018-12-03T09:54:06.529Z,13.00
2018-12-03T09:56:45.423Z,13.10
2018-12-03T09:59:15.438Z,13.10
2018-12-03T10:01:44.911Z,13.20
2018-12-03T10:04:22.668Z,13.20
2018-12-03T10:06:50.997Z,13.30
2018-12-03T10:09:19.325Z,13.30
2018-12-03T10:11:47.531Z,13.30
2018-12-03T10:14:18.899Z,13.20
2018-12-03T10:16:47.557Z,13.20
2018-12-03T10:19:16.105Z,13.10
2018-12-03T10:21:47.426Z,13.10
2018-12-03T10:24:16.133Z,13.00
2018-12-03T10:26:44.567Z,13.10
2018-12-03T10:29:14.429Z,13.00
2018-12-03T10:31:42.666Z,13.10
2018-12-03T10:34:15.289Z,13.10
2018-12-03T10:36:49.066Z,13.20
2018-12-03T10:39:22.390Z,13.30
2018-12-03T10:41:55.500Z,13.40
2018-12-03T10:44:23.790Z,13.50
2018-12-03T10:46:53.760Z,13.50
2018-12-03T10:49:22.255Z,13.50
2018-12-03T10:51:50.463Z,13.50
2018-12-03T10:54:18.921Z,13.50
2018-12-03T10:56:47.398Z,13.60
2018-12-03T10:59:15.763Z,13.70
2018-12-03T11:01:51.229Z,13.90
2018-12-03T11:04:24.910Z,13.80
2018-12-03T11:06:53.446Z,13.80
2018-12-03T11:09:23.293Z,13.80
2018-12-03T11:11:51.511Z,13.80
2018-12-03T11:14:19.889Z,13.70
2018-12-03T11:16:49.155Z,13.70
2018-12-03T11:19:17.568Z,13.70
2018-12-03T11:21:45.922Z,13.80
2018-12-03T11:24:16.076Z,13.80
2018-12-03T11:26:46.429Z,13.80
2018-12-03T11:29:15.461Z,13.70
2018-12-03T11:31:43.816Z,13.70
2018-12-03T11:34:13.076Z,13.60
2018-12-03T11:36:51.406Z,13.50
2018-12-03T11:39:31.778Z,13.60
2018-12-03T11:42:02.048Z,13.60
2018-12-03T11:44:30.245Z,13.60
2018-12-03T11:46:58.865Z,13.50
2018-12-03T11:49:27.324Z,13.50
2018-12-03T11:51:55.643Z,13.50
2018-12-03T11:54:23.890Z,13.50
2018-12-03T11:56:52.190Z,13.40
2018-12-03T11:59:20.424Z,13.40
2018-12-03T12:01:48.798Z,13.50
2018-12-03T12:04:17.666Z,13.50
2018-12-03T12:06:45.877Z,13.50
2018-12-03T12:09:14.189Z,13.50
2018-12-03T12:11:42.553Z,13.50
2018-12-03T12:14:20.447Z,13.50
2018-12-03T12:16:48.944Z,13.60
2018-12-03T12:19:17.511Z,13.70
2018-12-03T12:21:45.842Z,13.70
2018-12-03T12:24:14.377Z,13.80
2018-12-03T12:26:42.610Z,13.90
2018-12-03T12:29:11.194Z,13.90
2018-12-03T12:31:39.485Z,14.00
2018-12-03T12:34:07.697Z,14.00
2018-12-03T12:36:35.873Z,14.00
2018-12-03T12:39:06.502Z,14.00
2018-12-03T12:41:34.793Z,14.00
2018-12-03T12:44:04.208Z,13.90
2018-12-03T12:46:32.655Z,13.80
2018-12-03T12:49:01.032Z,13.80
2018-12-03T12:51:29.338Z,13.80
2018-12-03T12:53:57.533Z,13.70
2018-12-03T12:56:25.966Z,13.70
2018-12-03T12:58:54.182Z,13.60
2018-12-03T13:01:22.417Z,13.70
2018-12-03T13:03:50.747Z,13.70
2018-12-03T13:06:20.027Z,13.70
2018-12-03T13:08:49.068Z,13.60
2018-12-03T13:11:17.416Z,13.70
2018-12-03T13:13:46.268Z,13.70
2018-12-03T13:16:15.616Z,13.70
2018-12-03T13:18:43.945Z,13.70
2018-12-03T13:21:12.162Z,13.80
2018-12-03T13:23:40.393Z,13.80
2018-12-03T13:26:10.232Z,13.80
2018-12-03T13:28:38.658Z,13.70
2018-12-03T13:31:07.079Z,13.70
2018-12-03T13:33:35.540Z,13.70
2018-12-03T13:36:03.866Z,13.70
2018-12-03T13:38:32.100Z,13.70
2018-12-03T13:41:00.512Z,13.60
2018-12-03T13:43:30.316Z,13.50
2018-12-03T13:45:58.617Z,13.50
2018-12-03T13:48:26.925Z,13.40
2018-12-03T13:50:56.226Z,13.40
2018-12-03T13:53:24.884Z,13.30
2018-12-03T13:55:54.218Z,13.30
2018-12-03T13:58:21.578Z,13.20
2018-12-03T14:00:49.849Z,13.20
2018-12-03T14:03:23.663Z,13.20
2018-12-03T14:06:28.462Z,13.20
2018-12-03T14:09:23.718Z,13.20
2018-12-03T14:11:59.040Z,13.20
2018-12-03T14:15:39.379Z,13.10
2018-12-03T14:18:16.297Z,13.10
2018-12-03T14:20:48.089Z,13.10
2018-12-03T14:23:20.108Z,13.10
2018-12-03T14:25:47.992Z,13.10
2018-12-03T14:28:16.222Z,13.00
2018-12-03T14:30:44.507Z,13.00
2018-12-03T14:33:12.769Z,13.00
2018-12-03T14:35:41.618Z,12.90
2018-12-03T14:38:09.921Z,12.80
2018-12-03T14:40:38.618Z,12.80
2018-12-03T14:43:06.814Z,12.70
2018-12-03T14:45:35.209Z,12.60
2018-12-03T14:48:03.607Z,12.50
2018-12-03T14:50:32.430Z,12.40
2018-12-03T14:53:01.053Z,12.40
2018-12-03T14:55:29.565Z,12.40
2018-12-03T14:57:57.827Z,12.40
2018-12-03T15:00:27.156Z,12.40
2018-12-03T15:02:55.454Z,12.40
2018-12-03T15:05:23.809Z,12.40
2018-12-03T15:07:52.100Z,12.30
2018-12-03T15:10:20.284Z,12.30
2018-12-03T15:12:48.470Z,12.30
2018-12-03T15:15:16.665Z,12.30
2018-12-03T15:17:45.490Z,12.20
2018-12-03T15:20:13.953Z,12.30
2018-12-03T15:22:43.582Z,12.30
2018-12-03T15:25:13.296Z,12.30
2018-12-03T15:27:41.567Z,12.30
2018-12-03T15:30:10.946Z,12.30
2018-12-03T15:32:39.221Z,12.30
2018-12-03T15:35:09.385Z,12.30
2018-12-03T15:37:37.898Z,12.10
2018-12-03T15:40:10.473Z,12.00
2018-12-03T15:42:38.698Z,11.90
2018-12-03T15:45:08.635Z,11.70
2018-12-03T15:47:37.522Z,11.60
2018-12-03T15:50:07.070Z,11.50
2018-12-03T15:52:35.953Z,11.40
2018-12-03T15:55:04.702Z,11.40
2018-12-03T15:57:32.952Z,11.40
2018-12-03T16:00:01.701Z,11.40
2018-12-03T16:02:30.082Z,11.40
2018-12-03T16:04:58.749Z,11.50
2018-12-03T16:07:27.429Z,11.60
2018-12-03T16:09:56.092Z,11.50
2018-12-03T16:12:24.411Z,11.50
2018-12-03T16:14:53.090Z,11.60
2018-12-03T16:17:21.542Z,11.60
2018-12-03T16:19:50.969Z,11.60
2018-12-03T16:22:19.425Z,11.70
2018-12-03T16:24:48.211Z,11.70
2018-12-03T16:27:16.925Z,11.70
2018-12-03T16:29:45.421Z,11.70
2018-12-03T16:32:13.907Z,11.70
2018-12-03T16:34:45.010Z,11.70
2018-12-03T16:37:13.369Z,11.70
2018-12-03T16:39:41.774Z,11.60
2018-12-03T16:42:10.017Z,11.60
2018-12-03T16:44:38.518Z,11.60
2018-12-03T16:47:07.852Z,11.60
2018-12-03T16:49:36.134Z,11.60
2018-12-03T16:52:04.780Z,11.70
2018-12-03T16:54:33.094Z,11.70
2018-12-03T16:57:01.549Z,11.70
2018-12-03T16:59:30.241Z,11.80
2018-12-03T17:01:58.521Z,11.80
2018-12-03T17:04:26.997Z,11.90
2018-12-03T17:06:55.318Z,11.90
2018-12-03T17:09:23.955Z,12.00
2018-12-03T17:11:52.662Z,12.00
2018-12-03T17:14:21.537Z,12.00
2018-12-03T17:16:50.105Z,12.10
2018-12-03T17:19:18.378Z,12.10
2018-12-03T17:22:21.704Z,12.10
2018-12-03T17:24:50.390Z,12.10
2018-12-03T17:27:18.689Z,12.10
2018-12-03T17:29:47.386Z,12.10
2018-12-03T17:32:15.794Z,12.10
2018-12-03T17:34:48.823Z,12.00
2018-12-03T17:37:13.537Z,12.00
2018-12-03T17:39:41.797Z,12.10
2018-12-03T17:42:10.061Z,12.20
2018-12-03T17:44:38.329Z,12.30
2018-12-03T17:47:06.718Z,12.20
2018-12-03T17:49:36.281Z,12.20
2018-12-03T17:52:04.847Z,12.30
2018-12-03T17:54:33.309Z,12.20
2018-12-03T17:57:01.750Z,12.10
2018-12-03T17:59:30.673Z,12.20
2018-12-03T18:02:00.182Z,12.10
2018-12-03T18:04:28.672Z,12.10
2018-12-03T18:06:57.654Z,12.10
2018-12-03T18:09:26.246Z,12.10
2018-12-03T18:11:54.561Z,12.10
2018-12-03T18:14:23.101Z,12.00
2018-12-03T18:16:51.654Z,11.80
2018-12-03T18:19:20.184Z,11.60
2018-12-03T18:21:48.485Z,11.40
2018-12-03T18:24:17.030Z,11.20
2018-12-03T18:26:45.537Z,11.10
2018-12-03T18:29:15.905Z,10.90
2018-12-03T18:31:44.115Z,10.80
2018-12-03T18:34:12.888Z,10.80
2018-12-03T18:36:41.487Z,10.70
2018-12-03T18:39:10.660Z,10.60
2018-12-03T18:41:38.985Z,10.40
2018-12-03T18:44:07.216Z,10.30
2018-12-03T18:46:35.569Z,10.20
2018-12-03T18:49:07.930Z,10.00
2018-12-03T18:51:36.570Z,10.00
2018-12-03T18:54:05.690Z,9.90
2018-12-03T18:56:34.863Z,9.90
2018-12-03T18:59:05.093Z,9.80
2018-12-03T19:01:33.692Z,9.80
2018-12-03T19:04:02.353Z,9.80
2018-12-03T19:06:31.186Z,9.70
2018-12-03T19:08:59.979Z,9.80
2018-12-03T19:11:28.220Z,9.80
2018-12-03T19:13:58.603Z,9.80
2018-12-03T19:16:27.175Z,9.80
2018-12-03T19:18:56.436Z,9.90
2018-12-03T19:21:25.127Z,9.90
2018-12-03T19:23:53.518Z,10.00
2018-12-03T19:26:21.778Z,10.20
2018-12-03T19:28:50.594Z,10.20
2018-12-03T19:31:18.862Z,10.20
2018-12-03T19:33:47.517Z,10.20
2018-12-03T19:36:15.911Z,10.20
2018-12-03T19:38:44.689Z,10.20
2018-12-03T19:41:12.914Z,10.20
2018-12-03T19:43:41.120Z,10.20
2018-12-03T19:46:10.825Z,10.30
2018-12-03T19:48:39.070Z,10.30
2018-12-03T19:51:07.708Z,10.20
2018-12-03T19:53:36.469Z,10.30
2018-12-03T19:56:04.996Z,10.20
2018-12-03T19:58:36.061Z,10.20
2018-12-03T20:01:04.702Z,10.20
2018-12-03T20:03:32.941Z,10.30
2018-12-03T20:06:02.359Z,10.30
2018-12-03T20:08:31.382Z,10.20
2018-12-03T20:11:00.088Z,10.20
2018-12-03T20:13:28.358Z,10.20
2018-12-03T20:15:57.140Z,10.20
2018-12-03T20:18:25.822Z,10.20
2018-12-03T20:21:03.793Z,10.10
2018-12-03T20:23:37.669Z,10.00
2018-12-03T20:26:23.397Z,10.00
2018-12-03T20:28:59.500Z,10.00
2018-12-03T20:31:44.394Z,10.00
2018-12-03T20:34:20.405Z,10.00
2018-12-03T20:37:58.306Z,10.10
2018-12-03T20:40:35.885Z,10.00
2018-12-03T20:43:10.342Z,10.00
2018-12-03T20:46:47.635Z,9.90
2018-12-03T20:50:31.679Z,9.90
2018-12-03T20:53:00.169Z,9.90
2018-12-03T20:55:35.962Z,9.90
2018-12-03T20:58:04.198Z,9.90
2018-12-03T21:00:32.697Z,9.90
2018-12-03T21:03:01.930Z,9.90
2018-12-03T21:05:30.286Z,9.90
2018-12-03T21:07:58.637Z,10.00
2018-12-03T21:10:27.453Z,10.00
2018-12-03T21:12:55.738Z,9.90
2018-12-03T21:15:24.135Z,9.90
2018-12-03T21:17:54.363Z,10.00
2018-12-03T21:20:30.025Z,10.00
2018-12-03T21:22:59.274Z,9.90
2018-12-03T21:25:28.451Z,9.90
2018-12-03T21:27:57.026Z,9.90
2018-12-03T21:30:26.199Z,9.90
2018-12-03T21:32:55.195Z,9.90
2018-12-03T21:35:24.067Z,9.90
2018-12-03T21:37:52.969Z,9.90
2018-12-03T21:40:22.804Z,9.90
2018-12-03T21:42:51.598Z,9.90
2018-12-03T21:45:20.465Z,10.00
2018-12-03T21:47:48.689Z,10.00
2018-12-03T21:50:17.177Z,10.00
2018-12-03T21:52:46.103Z,10.00
2018-12-03T21:55:14.371Z,10.00
2018-12-03T21:57:43.796Z,10.00
2018-12-03T22:00:16.501Z,9.90
2018-12-03T22:02:45.186Z,9.90
2018-12-03T22:05:14.062Z,10.00
2018-12-03T22:07:42.818Z,10.00
2018-12-03T22:10:11.542Z,9.90
2018-12-03T22:12:40.034Z,9.90
2018-12-03T22:15:08.594Z,9.90
2018-12-03T22:17:37.273Z,9.90
2018-12-03T22:20:08.807Z,9.80
2018-12-03T22:22:37.206Z,9.70
2018-12-03T22:25:06.042Z,9.60
2018-12-03T22:27:34.774Z,9.60
2018-12-03T22:30:03.654Z,9.60
2018-12-03T22:32:32.385Z,9.60
2018-12-03T22:35:02.408Z,9.60
2018-12-03T22:37:31.432Z,9.50
2018-12-03T22:40:00.746Z,9.50
2018-12-03T22:42:29.299Z,9.50
2018-12-03T22:44:58.295Z,9.40
2018-12-03T22:47:26.861Z,9.30
2018-12-03T22:49:55.323Z,9.30
2018-12-03T22:52:23.757Z,9.30
2018-12-03T22:54:52.470Z,9.20
2018-12-03T22:57:21.794Z,9.20
2018-12-03T22:59:50.472Z,9.20
2018-12-03T23:02:18.976Z,9.30
2018-12-03T23:04:47.813Z,9.30
2018-12-03T23:07:16.470Z,9.40
2018-12-03T23:09:44.727Z,9.40
2018-12-03T23:12:14.210Z,9.40
2018-12-03T23:14:42.736Z,9.40
2018-12-03T23:17:11.644Z,9.40
2018-12-03T23:19:40.080Z,9.40
2018-12-03T23:22:08.787Z,9.40
2018-12-03T23:24:37.273Z,9.30
2018-12-03T23:27:06.047Z,9.30
2018-12-03T23:29:34.285Z,9.30
2018-12-03T23:32:02.993Z,9.30
2018-12-03T23:34:31.243Z,9.30
2018-12-03T23:36:59.932Z,9.30
2018-12-03T23:39:29.414Z,9.20
2018-12-03T23:41:57.860Z,9.10
2018-12-03T23:44:26.541Z,9.10
2018-12-03T23:46:55.412Z,9.20
2018-12-03T23:49:24.158Z,9.20
2018-12-03T23:51:52.383Z,9.20
2018-12-03T23:54:21.717Z,9.20
2018-12-03T23:56:50.683Z,9.20
2018-12-03T23:59:18.915Z,9.30
